createdAt,value
2023-04-19T00:01:13.695Z,100600.03
2023-04-19T00:02:41.618Z,100605.56
2023-04-19T00:04:04.400Z,100602.88
2023-04-19T00:05:28.431Z,100601.22
2023-04-19T00:06:54.092Z,100596.84
2023-04-19T00:08:19.299Z,100601.22
2023-04-19T00:09:40.797Z,100600.38
2023-04-19T00:11:38.571Z,100585.75
2023-04-19T00:13:05.358Z,100601.56
2023-04-19T00:14:30.925Z,100589.44
2023-04-19T00:15:54.686Z,100595.50
2023-04-19T00:19:22.846Z,100589.13
2023-04-19T00:20:52.707Z,100585.59
2023-04-19T00:22:20.336Z,100578.56
2023-04-19T00:23:43.795Z,100592.84
2023-04-19T00:25:05.322Z,100581.56
2023-04-19T00:26:30.327Z,100586.13
2023-04-19T00:27:52.856Z,100586.97
2023-04-19T00:29:16.388Z,100583.13
2023-04-19T00:30:37.734Z,100570.66
2023-04-19T00:31:59.972Z,100582.28
2023-04-19T00:33:22.963Z,100584.13
2023-04-19T00:34:45.091Z,100573.88
2023-04-19T00:36:12.908Z,100569.31
2023-04-19T00:37:45.453Z,100567.50
2023-04-19T00:39:09.179Z,100574.03
2023-04-19T00:40:37.507Z,100566.00
2023-04-19T00:42:01.572Z,100573.72
2023-04-19T00:44:06.321Z,100576.59
2023-04-19T00:45:33.688Z,100549.88
2023-04-19T00:47:22.813Z,100560.47
2023-04-19T00:48:52.374Z,100563.81
2023-04-19T00:50:14.297Z,100555.59
2023-04-19T00:51:40.882Z,100557.28
2023-04-19T00:53:04.973Z,100553.25
2023-04-19T00:54:27.253Z,100560.97
2023-04-19T00:55:51.074Z,100566.19
2023-04-19T00:57:19.080Z,100552.75
2023-04-19T00:58:41.767Z,100558.47
2023-04-19T01:00:06.353Z,100556.59
2023-04-19T01:01:28.972Z,100548.69
2023-04-19T01:02:50.216Z,100557.59
2023-04-19T01:04:17.796Z,100556.78
2023-04-19T01:05:42.178Z,100545.69
2023-04-19T01:07:09.332Z,100546.72
2023-04-19T01:08:31.399Z,100544.16
2023-04-19T01:09:52.498Z,100540.13
2023-04-19T01:11:16.962Z,100543.81
2023-04-19T01:12:40.743Z,100539.63
2023-04-19T01:14:01.726Z,100537.44
2023-04-19T01:15:30.100Z,100533.25
2023-04-19T01:16:51.891Z,100535.94
2023-04-19T01:18:14.201Z,100536.13
2023-04-19T01:19:41.825Z,100528.56
2023-04-19T01:21:13.103Z,100532.91
2023-04-19T01:22:42.748Z,100531.56
2023-04-19T01:26:24.927Z,100527.91
2023-04-19T01:27:46.186Z,100527.03
2023-04-19T01:29:08.152Z,100535.47
2023-04-19T01:30:29.580Z,100523.88
2023-04-19T01:31:54.096Z,100524.91
2023-04-19T01:33:18.549Z,100527.75
2023-04-19T01:34:43.026Z,100519.84
2023-04-19T01:36:05.992Z,100519.16
2023-04-19T01:37:31.653Z,100521.84
2023-04-19T01:38:55.861Z,100525.72
2023-04-19T01:40:19.202Z,100519.84
2023-04-19T01:41:40.668Z,100510.09
2023-04-19T01:43:05.306Z,100522.53
2023-04-19T01:44:29.298Z,100517.31
2023-04-19T01:45:51.750Z,100516.69
2023-04-19T01:47:16.615Z,100517.66
2023-04-19T01:48:41.934Z,100512.47
2023-04-19T01:50:04.332Z,100517.00
2023-04-19T01:52:24.674Z,100487.09
2023-04-19T01:53:47.326Z,100502.38
2023-04-19T01:55:11.308Z,100507.75
2023-04-19T01:56:35.556Z,100506.09
2023-04-19T01:57:58.819Z,100496.00
2023-04-19T01:59:20.250Z,100496.19
2023-04-19T02:00:43.176Z,100494.31
2023-04-19T02:02:11.972Z,100493.50
2023-04-19T02:03:36.076Z,100498.00
2023-04-19T02:05:02.265Z,100491.13
2023-04-19T02:06:23.598Z,100493.13
2023-04-19T02:07:46.586Z,100488.94
2023-04-19T02:09:08.666Z,100490.97
2023-04-19T02:10:32.445Z,100496.66
2023-04-19T02:11:53.400Z,100487.75
2023-04-19T02:13:17.073Z,100494.16
2023-04-19T02:14:42.288Z,100494.50
2023-04-19T02:16:06.277Z,100481.38
2023-04-19T02:17:29.166Z,100495.50
2023-04-19T02:18:52.356Z,100489.78
2023-04-19T02:20:14.604Z,100485.91
2023-04-19T02:21:35.212Z,100495.16
2023-04-19T02:22:57.459Z,100483.25
2023-04-19T02:24:18.363Z,100489.94
2023-04-19T02:25:42.270Z,100492.81
2023-04-19T02:27:04.659Z,100478.22
2023-04-19T02:28:27.281Z,100481.72
2023-04-19T02:29:49.836Z,100477.53
2023-04-19T02:31:11.254Z,100497.84
2023-04-19T02:32:33.722Z,100483.91
2023-04-19T02:33:55.218Z,100491.66
2023-04-19T02:35:18.029Z,100494.16
2023-04-19T02:36:39.456Z,100486.09
2023-04-19T02:38:02.067Z,100499.53
2023-04-19T02:39:24.229Z,100490.97
2023-04-19T02:40:46.245Z,100492.31
2023-04-19T02:42:11.232Z,100484.25
2023-04-19T02:43:33.404Z,100486.09
2023-04-19T02:44:56.062Z,100481.06
2023-04-19T02:46:19.725Z,100477.00
2023-04-19T02:47:42.194Z,100480.53
2023-04-19T02:49:11.911Z,100477.00
2023-04-19T02:50:38.654Z,100473.63
2023-04-19T02:52:04.283Z,100480.88
2023-04-19T02:53:28.614Z,100473.16
2023-04-19T02:54:55.952Z,100477.00
2023-04-19T02:56:28.897Z,100464.22
2023-04-19T02:57:50.398Z,100470.28
2023-04-19T02:59:40.164Z,100467.59
2023-04-19T03:01:03.930Z,100453.31
2023-04-19T03:02:32.862Z,100466.22
2023-04-19T03:04:11.164Z,100449.94
2023-04-19T03:05:41.598Z,100457.19
2023-04-19T03:07:03.902Z,100459.88
2023-04-19T03:08:27.830Z,100458.84
2023-04-19T03:09:55.901Z,100461.53
2023-04-19T03:11:18.845Z,100456.16
2023-04-19T03:12:45.940Z,100449.63
2023-04-19T03:14:10.001Z,100458.84
2023-04-19T03:15:36.653Z,100469.25
2023-04-19T03:16:59.050Z,100462.91
2023-04-19T03:18:21.036Z,100455.66
2023-04-19T03:19:43.462Z,100456.50
2023-04-19T03:21:08.990Z,100453.81
2023-04-19T03:22:48.432Z,100448.63
2023-04-19T03:24:11.254Z,100441.53
2023-04-19T03:26:36.759Z,100437.84
2023-04-19T03:28:03.779Z,100448.28
2023-04-19T03:29:49.207Z,100443.22
2023-04-19T03:31:11.815Z,100446.25
2023-04-19T03:32:35.003Z,100435.16
2023-04-19T03:33:56.644Z,100434.31
2023-04-19T03:35:26.410Z,100437.84
2023-04-19T03:36:50.886Z,100439.03
2023-04-19T03:38:13.209Z,100439.16
2023-04-19T03:39:38.372Z,100435.84
2023-04-19T03:41:04.869Z,100437.66
2023-04-19T03:42:32.486Z,100427.09
2023-04-19T03:44:21.030Z,100442.53
2023-04-19T03:45:43.948Z,100430.63
2023-04-19T03:47:09.108Z,100443.19
2023-04-19T03:48:36.657Z,100437.66
2023-04-19T03:49:59.069Z,100446.53
2023-04-19T03:51:22.023Z,100440.50
2023-04-19T03:52:44.541Z,100425.03
2023-04-19T03:54:08.778Z,100438.81
2023-04-19T03:55:32.664Z,100434.09
2023-04-19T03:56:57.491Z,100446.72
2023-04-19T03:58:22.854Z,100445.03
2023-04-19T03:59:53.425Z,100443.50
2023-04-19T04:03:50.277Z,100438.94
2023-04-19T04:05:18.265Z,100435.91
2023-04-19T04:06:46.245Z,100426.19
2023-04-19T04:08:14.101Z,100435.72
2023-04-19T04:09:50.319Z,100458.06
2023-04-19T04:11:15.452Z,100434.88
2023-04-19T04:12:40.963Z,100439.25
2023-04-19T04:14:16.721Z,100436.72
2023-04-19T04:15:52.953Z,100454.50
2023-04-19T04:17:45.015Z,100437.00
2023-04-19T04:19:13.994Z,100440.56
2023-04-19T04:20:58.130Z,100454.97
2023-04-19T04:23:01.657Z,100457.16
2023-04-19T04:24:27.333Z,100458.94
2023-04-19T04:28:08.719Z,100471.88
2023-04-19T04:29:29.871Z,100460.53
2023-04-19T04:31:07.932Z,100468.41
2023-04-19T04:32:31.324Z,100465.97
2023-04-19T04:33:56.624Z,100461.69
2023-04-19T04:35:20.889Z,100465.16
2023-04-19T04:36:51.968Z,100462.72
2023-04-19T04:38:24.080Z,100470.00
2023-04-19T04:39:48.493Z,100466.94
2023-04-19T04:41:10.830Z,100456.16
2023-04-19T04:42:33.677Z,100471.88
2023-04-19T04:44:11.578Z,100463.44
2023-04-19T04:45:35.609Z,100467.56
2023-04-19T04:47:02.179Z,100454.06
2023-04-19T04:48:27.339Z,100457.19
2023-04-19T04:50:01.023Z,100462.84
2023-04-19T04:51:51.407Z,100439.66
2023-04-19T04:53:30.723Z,100447.84
2023-04-19T04:55:15.002Z,100451.28
2023-04-19T04:56:50.424Z,100461.31
2023-04-19T04:58:13.353Z,100457.75
2023-04-19T05:00:36.874Z,100445.81
2023-04-19T05:02:15.315Z,100459.06
2023-04-19T05:03:40.811Z,100457.38
2023-04-19T05:05:15.090Z,100459.22
2023-04-19T05:06:41.314Z,100459.78
2023-04-19T05:08:08.096Z,100456.78
2023-04-19T05:09:31.964Z,100441.88
2023-04-19T05:11:42.160Z,100461.00
2023-04-19T05:13:04.293Z,100452.13
2023-04-19T05:14:42.810Z,100453.28
2023-04-19T05:16:22.819Z,100439.59
2023-04-19T05:18:05.306Z,100440.72
2023-04-19T05:19:34.502Z,100466.44
2023-04-19T05:21:05.353Z,100453.44
2023-04-19T05:22:30.673Z,100454.44
2023-04-19T05:24:05.648Z,100444.56
2023-04-19T05:25:36.154Z,100450.31
2023-04-19T05:27:22.588Z,100452.66
2023-04-19T05:29:06.590Z,100447.94
2023-04-19T05:30:56.160Z,100445.63
2023-04-19T05:32:42.805Z,100434.69
2023-04-19T05:34:37.997Z,100442.28
2023-04-19T05:36:22.551Z,100449.53
2023-04-19T05:37:59.270Z,100440.81
2023-04-19T05:39:29.836Z,100424.75
2023-04-19T05:40:57.597Z,100434.25
2023-04-19T05:42:27.727Z,100424.41
2023-04-19T05:43:52.153Z,100424.09
2023-04-19T05:45:22.486Z,100434.28
2023-04-19T05:46:43.970Z,100435.81
2023-04-19T05:48:17.572Z,100433.41
2023-04-19T05:50:15.216Z,100418.34
2023-04-19T05:51:50.608Z,100434.16
2023-04-19T05:53:29.888Z,100434.84
2023-04-19T05:54:56.741Z,100420.41
2023-04-19T05:56:25.045Z,100415.72
2023-04-19T05:57:47.987Z,100427.38
2023-04-19T05:59:14.202Z,100436.97
2023-04-19T06:00:39.820Z,100424.28
2023-04-19T06:02:19.207Z,100429.84
2023-04-19T06:03:56.080Z,100425.06
2023-04-19T06:05:43.767Z,100417.69
2023-04-19T06:07:22.278Z,100433.91
2023-04-19T06:08:55.026Z,100432.63
2023-04-19T06:10:44.575Z,100441.22
2023-04-19T06:12:24.188Z,100432.75
2023-04-19T06:14:51.860Z,100419.16
2023-04-19T06:32:09.299Z,100425.59
2023-04-19T06:34:28.043Z,100423.56
2023-04-19T06:36:21.278Z,100427.28
2023-04-19T06:37:45.503Z,100427.28
2023-04-19T06:42:26.275Z,100428.84
2023-04-19T06:43:49.239Z,100418.09
2023-04-19T06:45:52.532Z,100434.09
2023-04-19T06:47:50.018Z,100434.09
2023-04-19T06:49:18.599Z,100416.09
2023-04-19T06:50:43.391Z,100429.28
2023-04-19T06:52:09.936Z,100425.72
2023-04-19T06:53:31.130Z,100430.81
2023-04-19T06:56:45.889Z,100427.56
2023-04-19T06:58:11.226Z,100431.38
2023-04-19T07:00:12.890Z,100425.75
2023-04-19T07:08:46.248Z,100428.13
2023-04-19T07:10:23.852Z,100416.59
2023-04-19T07:12:27.976Z,100428.31
2023-04-19T07:16:54.111Z,100425.09
2023-04-19T07:18:42.995Z,100424.19
2023-04-19T07:20:49.211Z,100427.75
2023-04-19T07:22:43.090Z,100418.41
2023-04-19T07:24:12.973Z,100437.38
2023-04-19T07:25:46.581Z,100415.75
2023-04-19T07:27:08.968Z,100425.13
2023-04-19T07:29:08.587Z,100410.00
2023-04-19T07:30:47.570Z,100414.84
2023-04-19T07:32:17.779Z,100416.84
2023-04-19T07:34:33.690Z,100413.31
2023-04-19T07:36:05.239Z,100414.44
2023-04-19T07:37:28.242Z,100407.38
2023-04-19T07:38:51.793Z,100400.13
2023-04-19T07:40:22.097Z,100417.38
2023-04-19T07:42:04.069Z,100419.25
2023-04-19T07:43:44.322Z,100409.03
2023-04-19T07:45:46.132Z,100417.63
2023-04-19T07:47:12.334Z,100403.81
2023-04-19T07:49:28.162Z,100407.50
2023-04-19T08:19:31.376Z,100434.56
2023-04-19T08:21:07.971Z,100422.50
2023-04-19T08:23:29.699Z,100403.13
2023-04-19T08:39:29.358Z,100429.19
2023-04-19T08:41:23.464Z,100428.63
2023-04-19T08:43:38.107Z,100423.88
2023-04-19T08:45:32.361Z,100415.63
2023-04-19T08:47:32.305Z,100421.41
2023-04-19T08:49:07.742Z,100416.56
2023-04-19T08:51:00.598Z,100417.38
2023-04-19T08:53:21.096Z,100423.72
2023-04-19T08:56:12.821Z,100431.03
2023-04-19T08:58:28.385Z,100421.16
2023-04-19T09:00:15.799Z,100430.06
2023-04-19T09:02:02.597Z,100418.28
2023-04-19T09:03:36.355Z,100422.28
2023-04-19T09:05:03.387Z,100402.63
2023-04-19T09:06:29.605Z,100420.66
2023-04-19T09:07:56.748Z,100420.28
2023-04-19T09:11:27.444Z,100405.81
2023-04-19T09:13:02.966Z,100420.22
2023-04-19T09:39:52.075Z,100398.69
2023-04-19T09:41:17.680Z,100400.28
2023-04-19T09:43:53.335Z,100394.81
2023-04-19T09:47:43.407Z,100399.94
2023-04-19T09:51:18.539Z,100391.66
2023-04-19T09:53:32.981Z,100393.19
2023-04-19T09:55:25.005Z,100401.44
2023-04-19T09:57:12.507Z,100399.41
2023-04-19T09:59:11.979Z,100388.44
2023-04-19T10:00:48.893Z,100397.19
2023-04-19T10:02:15.768Z,100395.00
2023-04-19T10:03:46.521Z,100401.56
2023-04-19T10:05:57.358Z,100396.41
2023-04-19T10:07:30.071Z,100404.28
2023-04-19T10:09:00.165Z,100399.97
2023-04-19T10:13:07.391Z,100397.94
2023-04-19T10:14:27.730Z,100391.56
2023-04-19T10:16:45.108Z,100406.50
2023-04-19T10:18:16.917Z,100413.47
2023-04-19T10:19:44.648Z,100410.03
2023-04-19T10:21:17.335Z,100405.47
2023-04-19T10:22:40.683Z,100397.00
2023-04-19T10:24:08.881Z,100408.94
2023-04-19T10:25:37.977Z,100401.19
2023-04-19T10:27:34.596Z,100398.50
2023-04-19T10:29:09.052Z,100394.97
2023-04-19T10:30:36.243Z,100389.81
2023-04-19T10:31:59.159Z,100390.44
2023-04-19T10:33:37.807Z,100384.91
2023-04-19T10:35:04.456Z,100382.72
2023-04-19T10:36:29.111Z,100385.06
2023-04-19T10:38:13.669Z,100382.81
2023-04-19T10:39:42.484Z,100378.75
2023-04-19T10:41:18.806Z,100380.38
2023-04-19T10:43:21.308Z,100379.25
2023-04-19T10:44:43.975Z,100373.34
2023-04-19T10:46:42.326Z,100375.47
2023-04-19T10:48:17.872Z,100380.06
2023-04-19T10:49:58.725Z,100380.19
2023-04-19T10:51:44.463Z,100372.84
2023-04-19T10:53:43.825Z,100376.41
2023-04-19T11:04:43.533Z,100367.00
2023-04-19T11:21:55.820Z,100375.56
2023-04-19T11:24:16.338Z,100363.06
2023-04-19T11:37:53.417Z,100357.19
2023-04-19T11:42:18.084Z,100370.38
2023-04-19T11:43:52.623Z,100359.03
2023-04-19T11:45:40.091Z,100376.59
2023-04-19T11:47:08.511Z,100372.28
2023-04-19T11:49:59.089Z,100373.19
2023-04-19T11:51:27.417Z,100381.13
2023-04-19T11:52:57.697Z,100377.59
2023-04-19T12:07:37.085Z,100372.81
2023-04-19T12:09:30.525Z,100370.63
2023-04-19T12:12:37.326Z,100369.97
2023-04-19T12:14:39.333Z,100366.59
2023-04-19T12:19:29.024Z,100378.00
2023-04-19T12:27:52.922Z,100373.94
2023-04-19T12:33:06.678Z,100368.56
2023-04-19T12:34:32.535Z,100363.88
2023-04-19T12:35:56.730Z,100363.22
2023-04-19T12:37:22.793Z,100379.69
2023-04-19T12:38:56.451Z,100384.38
2023-04-19T12:40:36.487Z,100366.75
2023-04-19T12:44:43.831Z,100368.78
2023-04-19T12:46:24.133Z,100367.28
2023-04-19T12:47:58.208Z,100375.34
2023-04-19T12:49:48.358Z,100374.50
2023-04-19T12:51:25.095Z,100361.09
2023-04-19T12:53:39.406Z,100377.53
2023-04-19T12:59:30.284Z,100362.75
2023-04-19T13:01:55.945Z,100376.72
2023-04-19T13:06:24.843Z,100372.19
2023-04-19T13:08:14.805Z,100368.31
2023-04-19T13:09:40.170Z,100369.81
2023-04-19T13:13:25.911Z,100362.28
2023-04-19T13:31:27.030Z,100360.25
2023-04-19T14:26:18.930Z,100351.03
2023-04-19T14:28:05.123Z,100347.78
2023-04-19T14:29:36.048Z,100345.97
2023-04-19T14:31:17.495Z,100348.78
2023-04-19T14:32:52.184Z,100344.22
2023-04-19T14:34:16.985Z,100348.00
2023-04-19T14:36:01.663Z,100356.00
2023-04-19T14:37:48.007Z,100359.69
2023-04-19T14:42:37.535Z,100354.56
2023-04-19T14:44:02.855Z,100350.66
2023-04-19T14:45:28.091Z,100351.16
2023-04-19T14:46:50.838Z,100352.00
2023-04-19T14:56:12.392Z,100344.94
2023-04-19T14:59:05.715Z,100357.28
2023-04-19T15:00:15.891Z,100350.00
2023-04-19T15:06:03.005Z,100355.25
2023-04-19T15:10:11.220Z,100354.25
2023-04-19T15:11:35.126Z,100347.81
2023-04-19T15:14:43.515Z,100349.69
2023-04-19T15:16:37.572Z,100348.78
2023-04-19T15:18:00.348Z,100340.03
2023-04-19T15:19:22.904Z,100356.75
2023-04-19T15:20:45.142Z,100354.72
2023-04-19T15:22:07.312Z,100348.03
2023-04-19T15:23:28.305Z,100350.25
2023-04-19T15:24:53.040Z,100339.94
2023-04-19T15:26:15.368Z,100347.84
2023-04-19T15:27:39.250Z,100349.59
2023-04-19T15:29:04.131Z,100348.38
2023-04-19T15:30:26.471Z,100337.69
2023-04-19T15:31:53.291Z,100356.47
2023-04-19T15:33:21.368Z,100349.41
2023-04-19T15:37:48.624Z,100350.88
2023-04-19T15:39:21.199Z,100345.00
2023-04-19T15:40:54.856Z,100354.38
2023-04-19T15:46:21.316Z,100351.84
2023-04-19T15:47:50.085Z,100351.38
2023-04-19T15:49:12.566Z,100341.31
2023-04-19T15:50:42.295Z,100348.22
2023-04-19T15:52:11.254Z,100351.44
2023-04-19T15:53:35.681Z,100344.72
2023-04-19T15:55:08.457Z,100343.72
2023-04-19T15:56:31.533Z,100356.97
2023-04-19T15:59:39.797Z,100356.97
2023-04-19T16:01:03.804Z,100361.97
2023-04-19T16:02:26.557Z,100361.16
2023-04-19T16:03:48.848Z,100361.31
2023-04-19T16:05:25.288Z,100359.81
2023-04-19T16:06:53.382Z,100351.50
2023-04-19T16:08:36.485Z,100352.66
2023-04-19T16:10:06.279Z,100355.22
2023-04-19T16:11:32.595Z,100363.97
2023-04-19T16:13:08.323Z,100354.75
2023-04-19T16:14:32.560Z,100372.22
2023-04-19T16:15:57.380Z,100373.78
2023-04-19T16:17:36.248Z,100364.72
2023-04-19T16:18:59.886Z,100361.44
2023-04-19T16:20:56.113Z,100351.41
2023-04-19T16:23:23.652Z,100353.84
2023-04-19T16:24:54.925Z,100356.06
2023-04-19T16:26:28.125Z,100374.59
2023-04-19T16:27:52.960Z,100373.81
2023-04-19T16:29:50.444Z,100377.19
2023-04-19T16:31:46.431Z,100368.03
2023-04-19T16:34:18.059Z,100364.22
2023-04-19T16:37:50.483Z,100353.16
2023-04-19T16:39:14.583Z,100372.63
2023-04-19T16:40:39.763Z,100364.75
2023-04-19T16:42:06.808Z,100372.31
2023-04-19T16:43:31.885Z,100378.88
2023-04-19T16:45:31.182Z,100354.34
2023-04-19T16:47:09.139Z,100370.97
2023-04-19T16:48:37.845Z,100358.38
2023-04-19T16:50:02.419Z,100374.16
2023-04-19T16:51:35.218Z,100383.78
2023-04-19T16:55:35.447Z,100381.91
2023-04-19T16:58:42.474Z,100386.94
2023-04-19T17:00:13.298Z,100384.78
2023-04-19T17:01:40.324Z,100388.47
2023-04-19T17:03:02.035Z,100384.44
2023-04-19T17:04:44.939Z,100388.47
2023-04-19T17:08:33.844Z,100382.25
2023-04-19T17:10:42.038Z,100394.69
2023-04-19T17:12:13.318Z,100390.50
2023-04-19T17:13:43.001Z,100385.97
2023-04-19T17:15:16.063Z,100373.53
2023-04-19T17:17:34.419Z,100379.41
2023-04-19T17:19:29.140Z,100376.41
2023-04-19T17:20:53.653Z,100387.63
2023-04-19T17:22:39.078Z,100393.00
2023-04-19T17:24:25.003Z,100378.56
2023-04-19T17:25:57.713Z,100380.56
2023-04-19T17:29:25.727Z,100389.31
2023-04-19T17:30:55.882Z,100385.94
2023-04-19T17:32:18.273Z,100386.41
2023-04-19T17:33:45.654Z,100380.19
2023-04-19T17:35:13.399Z,100391.16
2023-04-19T17:36:38.103Z,100385.25
2023-04-19T17:38:03.966Z,100378.69
2023-04-19T17:39:36.984Z,100387.25
2023-04-19T17:40:59.419Z,100396.31
2023-04-19T17:42:21.576Z,100397.16
2023-04-19T17:43:44.004Z,100398.16
2023-04-19T17:45:11.113Z,100396.50
2023-04-19T17:46:33.280Z,100401.88
2023-04-19T17:47:56.390Z,100403.03
2023-04-19T17:49:20.255Z,100405.72
2023-04-19T17:50:44.641Z,100408.91
2023-04-19T17:52:11.643Z,100406.91
2023-04-19T17:53:46.459Z,100401.34
2023-04-19T17:55:09.605Z,100408.38
2023-04-19T17:56:40.362Z,100402.31
2023-04-19T17:58:02.523Z,100414.06
2023-04-19T17:59:27.682Z,100414.91
2023-04-19T18:00:50.198Z,100411.53
2023-04-19T18:02:15.216Z,100406.50
2023-04-19T18:03:50.922Z,100408.22
2023-04-19T18:05:16.891Z,100407.19
2023-04-19T18:06:44.049Z,100421.94
2023-04-19T18:08:06.767Z,100413.22
2023-04-19T18:09:30.851Z,100429.16
2023-04-19T18:11:03.854Z,100420.41
2023-04-19T18:12:33.808Z,100421.78
2023-04-19T18:13:56.909Z,100423.59
2023-04-19T18:15:26.760Z,100425.78
2023-04-19T18:16:49.085Z,100431.66
2023-04-19T18:18:13.251Z,100431.00
2023-04-19T18:19:37.452Z,100429.97
2023-04-19T18:21:02.319Z,100430.13
2023-04-19T18:22:27.035Z,100430.47
2023-04-19T18:24:00.951Z,100441.88
2023-04-19T18:25:27.416Z,100445.06
2023-04-19T18:26:52.242Z,100431.47
2023-04-19T18:28:16.541Z,100443.72
2023-04-19T18:30:22.095Z,100437.69
2023-04-19T18:32:28.796Z,100441.53
2023-04-19T18:34:03.084Z,100440.50
2023-04-19T18:35:27.912Z,100433.81
2023-04-19T18:37:01.123Z,100439.00
2023-04-19T18:38:29.901Z,100446.91
2023-04-19T18:39:54.755Z,100438.50
2023-04-19T18:41:22.515Z,100447.72
2023-04-19T18:42:54.396Z,100443.03
2023-04-19T18:44:34.680Z,100427.41
2023-04-19T18:46:08.782Z,100440.66
2023-04-19T18:48:50.279Z,100440.66
2023-04-19T18:50:02.618Z,100448.53
2023-04-19T18:51:33.796Z,100441.81
2023-04-19T18:53:04.751Z,100437.09
2023-04-19T18:54:35.894Z,100443.47
2023-04-19T18:56:01.950Z,100432.91
2023-04-19T18:57:28.441Z,100433.91
2023-04-19T18:59:02.938Z,100437.94
2023-04-19T19:00:31.009Z,100442.81
2023-04-19T19:02:40.948Z,100441.16
2023-04-19T19:04:46.803Z,100447.50
2023-04-19T19:06:26.104Z,100438.25
2023-04-19T19:07:50.803Z,100435.91
2023-04-19T19:09:26.429Z,100429.72
2023-04-19T19:11:18.270Z,100445.84
2023-04-19T19:12:49.625Z,100431.53
2023-04-19T19:14:30.598Z,100443.97
2023-04-19T19:15:56.150Z,100426.16
2023-04-19T19:17:32.555Z,100443.97
2023-04-19T19:19:08.759Z,100431.38
2023-04-19T19:20:45.238Z,100441.78
2023-04-19T19:22:22.470Z,100436.75
2023-04-19T19:23:59.880Z,100461.59
2023-04-19T19:27:37.910Z,100440.13
2023-04-19T19:29:02.033Z,100448.66
2023-04-19T19:30:34.096Z,100446.53
2023-04-19T19:31:58.314Z,100440.94
2023-04-19T19:33:23.560Z,100442.31
2023-04-19T19:35:08.298Z,100457.63
2023-04-19T19:37:14.093Z,100447.34
2023-04-19T19:39:37.246Z,100443.31
2023-04-19T19:42:04.613Z,100447.16
2023-04-19T19:44:07.431Z,100446.31
2023-04-19T19:48:09.388Z,100460.06
2023-04-19T19:52:28.343Z,100469.63
2023-04-19T19:53:52.640Z,100468.25
2023-04-19T19:55:26.924Z,100466.94
2023-04-19T19:58:47.701Z,100463.91
2023-04-19T20:00:36.907Z,100469.78
2023-04-19T20:02:09.825Z,100444.91
2023-04-19T20:03:54.019Z,100454.81
2023-04-19T20:05:30.723Z,100454.13
2023-04-19T20:09:01.461Z,100463.38
2023-04-19T20:10:27.128Z,100466.06
2023-04-19T20:11:49.405Z,100468.59
2023-04-19T20:13:13.417Z,100460.19
2023-04-19T20:14:37.984Z,100462.19
2023-04-19T20:16:06.115Z,100453.66
2023-04-19T20:17:32.699Z,100470.94
2023-04-19T20:18:58.237Z,100449.13
2023-04-19T20:20:35.569Z,100473.47
2023-04-19T20:22:20.864Z,100460.00
2023-04-19T20:23:55.865Z,100475.16
2023-04-19T20:25:40.259Z,100476.47
2023-04-19T20:27:02.688Z,100463.53
2023-04-19T20:28:27.426Z,100477.00
2023-04-19T20:30:13.629Z,100460.00
2023-04-19T20:31:38.677Z,100465.22
2023-04-19T20:33:03.070Z,100468.59
2023-04-19T20:34:26.868Z,100479.00
2023-04-19T20:35:49.492Z,100479.53
2023-04-19T20:37:14.767Z,100466.59
2023-04-19T20:38:40.072Z,100467.28
2023-04-19T20:40:06.184Z,100472.13
2023-04-19T20:41:28.485Z,100468.63
2023-04-19T20:42:54.556Z,100467.09
2023-04-19T20:44:24.478Z,100454.16
2023-04-19T20:47:49.620Z,100468.25
2023-04-19T20:49:18.121Z,100474.63
2023-04-19T20:50:40.717Z,100467.75
2023-04-19T20:52:04.485Z,100480.69
2023-04-19T20:53:30.299Z,100477.00
2023-04-19T20:55:10.939Z,100462.84
2023-04-19T20:56:33.794Z,100478.84
2023-04-19T20:57:59.178Z,100477.00
2023-04-19T20:59:22.852Z,100476.31
2023-04-19T21:01:17.519Z,100477.13
2023-04-19T21:02:39.002Z,100482.69
2023-04-19T21:04:09.099Z,100481.31
2023-04-19T21:05:38.535Z,100462.31
2023-04-19T21:07:01.198Z,100475.94
2023-04-19T21:08:26.955Z,100455.44
2023-04-19T21:10:03.610Z,100460.09
2023-04-19T21:11:26.113Z,100467.88
2023-04-19T21:16:01.456Z,100476.38
2023-04-19T21:17:35.143Z,100460.91
2023-04-19T21:18:57.811Z,100461.91
2023-04-19T21:20:19.122Z,100460.53
2023-04-19T21:21:42.653Z,100470.81
2023-04-19T21:23:05.005Z,100464.22
2023-04-19T21:24:27.302Z,100471.13
2023-04-19T21:26:03.201Z,100466.91
2023-04-19T21:27:26.426Z,100462.84
2023-04-19T21:28:48.648Z,100468.06
2023-04-19T21:30:23.080Z,100476.13
2023-04-19T21:31:45.650Z,100473.06
2023-04-19T21:33:08.187Z,100481.81
2023-04-19T21:34:30.700Z,100485.66
2023-04-19T21:35:51.915Z,100474.38
2023-04-19T21:37:16.576Z,100482.63
2023-04-19T21:38:39.078Z,100467.34
2023-04-19T21:40:02.303Z,100479.13
2023-04-19T21:41:50.456Z,100470.53
2023-04-19T21:43:13.231Z,100459.63
2023-04-19T21:44:35.437Z,100456.75
2023-04-19T21:45:57.894Z,100479.13
2023-04-19T21:47:22.368Z,100468.69
2023-04-19T21:48:44.925Z,100463.66
2023-04-19T21:50:08.668Z,100469.22
2023-04-19T21:51:40.406Z,100458.97
2023-04-19T21:53:04.394Z,100459.34
2023-04-19T21:54:33.825Z,100461.00
2023-04-19T21:55:56.545Z,100466.38
2023-04-19T21:57:22.057Z,100469.06
2023-04-19T21:58:44.322Z,100469.06
2023-04-19T22:00:09.775Z,100466.38
2023-04-19T22:01:31.050Z,100468.22
2023-04-19T22:02:55.958Z,100464.69
2023-04-19T22:04:20.714Z,100460.34
2023-04-19T22:05:46.142Z,100467.38
2023-04-19T22:07:28.589Z,100458.28
2023-04-19T22:08:51.543Z,100461.16
2023-04-19T22:10:29.704Z,100462.44
2023-04-19T22:11:58.562Z,100469.47
2023-04-19T22:13:22.280Z,100484.78
2023-04-19T22:14:50.663Z,100477.22
2023-04-19T22:16:47.595Z,100474.38
2023-04-19T22:18:15.705Z,100476.22
2023-04-19T22:19:38.306Z,100473.53
2023-04-19T22:21:03.815Z,100470.03
2023-04-19T22:22:26.164Z,100462.44
2023-04-19T22:23:48.377Z,100463.97
2023-04-19T22:25:12.648Z,100469.84
2023-04-19T22:26:34.644Z,100470.84
2023-04-19T22:27:55.850Z,100466.31
2023-04-19T22:29:18.670Z,100470.84
2023-04-19T22:31:26.531Z,100474.69
2023-04-19T22:32:52.229Z,100466.78
2023-04-19T22:34:14.748Z,100456.03
2023-04-19T22:35:36.952Z,100458.75
2023-04-19T22:36:59.632Z,100448.34
2023-04-19T22:38:33.804Z,100454.88
2023-04-19T22:39:55.290Z,100453.03
2023-04-19T22:41:19.699Z,100447.97
2023-04-19T22:42:44.172Z,100442.09
2023-04-19T22:44:14.260Z,100459.53
2023-04-19T22:45:39.359Z,100453.81
2023-04-19T22:47:00.933Z,100458.34
2023-04-19T22:48:23.292Z,100465.38
2023-04-19T22:49:45.399Z,100447.94
2023-04-19T22:51:08.033Z,100458.34
2023-04-19T22:52:29.180Z,100453.81
2023-04-19T22:53:56.586Z,100439.19
2023-04-19T22:55:19.855Z,100454.97
2023-04-19T22:56:52.874Z,100452.97
2023-04-19T22:58:15.556Z,100450.28
2023-04-19T22:59:36.730Z,100451.13
2023-04-19T23:00:59.165Z,100451.13